Time;durP1;ratioP1;P1;durP2;ratioP2;P2;SDS_P1;SDS_P2;PMS_P1;PMS_P2;Temp;Humidity;BMP_temperature;BMP_pressure;BME280_temperature;BME280_humidity;BME280_pressure;Samples;Min_cycle;Max_cycle;Signal;HPM_P1;HPM_P2
2022/12/13 00:02:20;;;;;;;49.20;25.07;;;;;;;3.87;100.00;99722.02;124081;1099;104270;-78
2022/12/13 00:04:52;;;;;;;45.30;22.87;;;;;;;3.86;100.00;99721.11;124081;1099;104367;-78
2022/12/13 00:07:23;;;;;;;48.00;25.60;;;;;;;3.83;100.00;99722.66;124001;1099;104361;-78
2022/12/13 00:09:54;;;;;;;47.80;26.43;;;;;;;3.81;100.00;99727.78;124020;1099;104168;-78
2022/12/13 00:12:27;;;;;;;46.50;24.10;;;;;;;3.82;100.00;99739.04;124185;1099;104288;-79
2022/12/13 00:14:58;;;;;;;50.23;26.10;;;;;;;3.82;100.00;99729.57;123871;1099;104201;-79
2022/12/13 00:17:31;;;;;;;46.37;24.30;;;;;;;3.82;100.00;99728.66;123743;1099;104749;-78
2022/12/13 00:20:02;;;;;;;47.40;26.20;;;;;;;3.81;100.00;99730.38;124025;1099;104264;-78
2022/12/13 00:22:33;;;;;;;45.13;24.10;;;;;;;3.80;100.00;99736.37;123662;1099;104274;-78
2022/12/13 00:25:05;;;;;;;51.43;26.60;;;;;;;3.80;100.00;99738.08;124044;1099;104351;-78
2022/12/13 00:27:36;;;;;;;46.73;24.87;;;;;;;3.75;100.00;99737.84;123815;1099;104271;-79
2022/12/13 00:30:09;;;;;;;44.93;24.23;;;;;;;3.73;100.00;99750.74;123891;1099;104434;-78
2022/12/13 00:32:40;;;;;;;41.70;21.63;;;;;;;3.71;100.00;99746.28;123973;1099;104473;-79
2022/12/13 00:35:12;;;;;;;38.53;19.27;;;;;;;3.69;100.00;99742.73;124100;1099;104290;-78
2022/12/13 00:37:43;;;;;;;41.47;21.87;;;;;;;3.68;100.00;99738.38;124012;1098;104357;-79
2022/12/13 00:40:15;;;;;;;41.73;21.47;;;;;;;3.66;100.00;99739.98;124086;1098;104349;-79
2022/12/13 00:42:47;;;;;;;47.80;22.97;;;;;;;3.63;100.00;99743.33;123950;1099;104386;-79
2022/12/13 00:45:19;;;;;;;43.13;22.37;;;;;;;3.60;100.00;99736.27;123625;1099;104431;-79
2022/12/13 00:47:50;;;;;;;40.70;20.13;;;;;;;3.60;100.00;99735.38;123679;1099;104371;-77
2022/12/13 00:50:22;;;;;;;37.17;17.90;;;;;;;3.57;100.00;99736.11;123550;1099;104280;-79
2022/12/13 00:52:53;;;;;;;34.13;16.80;;;;;;;3.57;100.00;99732.63;123883;1099;104278;-79
2022/12/13 00:55:25;;;;;;;41.43;21.27;;;;;;;3.55;100.00;99716.98;123833;1099;104255;-78
2022/12/13 00:57:56;;;;;;;35.05;18.10;;;;;;;3.54;100.00;99697.03;123898;1099;104248;-78
2022/12/13 01:00:27;;;;;;;36.90;18.25;;;;;;;3.53;100.00;99707.34;123873;1099;104361;-78
2022/12/13 01:02:58;;;;;;;43.57;21.20;;;;;;;3.50;100.00;99700.28;123859;1099;104367;-79
2022/12/13 01:05:30;;;;;;;38.10;21.27;;;;;;;3.49;100.00;99706.30;123593;1099;104274;-78
2022/12/13 01:08:01;;;;;;;36.10;18.47;;;;;;;3.46;100.00;99700.95;123988;1099;104351;-79
2022/12/13 01:10:33;;;;;;;37.03;18.53;;;;;;;3.45;100.00;99700.88;123910;1098;104401;-78
2022/12/13 01:13:04;;;;;;;38.67;20.17;;;;;;;3.42;100.00;99702.48;123866;1099;104267;-78
2022/12/13 01:15:35;;;;;;;39.53;20.67;;;;;;;3.39;100.00;99702.31;123922;1099;104293;-80
2022/12/13 01:18:07;;;;;;;41.67;21.80;;;;;;;3.37;100.00;99708.26;123978;1099;104267;-79
2022/12/13 01:20:38;;;;;;;40.00;20.57;;;;;;;3.34;100.00;99713.28;123892;1099;104459;-79
2022/12/13 01:23:09;;;;;;;41.50;21.73;;;;;;;3.31;100.00;99711.42;123890;1099;104251;-79
2022/12/13 01:25:40;;;;;;;38.10;19.97;;;;;;;3.29;100.00;99714.73;123791;1099;104242;-79
2022/12/13 01:28:11;;;;;;;37.10;19.70;;;;;;;3.26;100.00;99717.16;123910;1098;104650;-79
2022/12/13 01:30:43;;;;;;;36.93;18.17;;;;;;;3.22;100.00;99713.53;123920;1099;104342;-79
2022/12/13 01:33:14;;;;;;;35.27;18.33;;;;;;;3.20;99.76;99709.97;124011;1099;104403;-78
2022/12/13 01:35:45;;;;;;;34.63;16.83;;;;;;;3.17;100.00;99700.32;123977;1099;104287;-78
2022/12/13 01:38:16;;;;;;;30.17;15.73;;;;;;;3.16;99.97;99703.72;123919;1099;104340;-78
2022/12/13 01:40:56;;;;;;;29.87;15.50;;;;;;;3.16;99.96;99732.23;123943;1099;104274;-78
2022/12/13 01:43:49;;;;;;;31.40;16.20;;;;;;;3.17;99.87;99733.14;123552;1099;104169;-78
2022/12/13 01:46:23;;;;;;;30.43;16.10;;;;;;;3.16;99.82;99736.53;124068;1099;104275;-79
2022/12/13 01:48:59;;;;;;;30.53;15.77;;;;;;;3.17;99.50;99743.52;123880;1099;104345;-79
2022/12/13 01:51:36;;;;;;;32.37;16.90;;;;;;;3.15;99.59;99738.25;123938;1099;104278;-78
2022/12/13 01:54:09;;;;;;;31.37;15.97;;;;;;;3.14;99.13;99736.45;123910;1099;104275;-78
2022/12/13 01:56:47;;;;;;;33.30;15.30;;;;;;;3.16;98.92;99724.45;123902;1099;104744;-78
2022/12/13 01:59:20;;;;;;;31.40;15.70;;;;;;;3.15;99.63;99716.63;123830;1099;104393;-79
2022/12/13 02:01:52;;;;;;;31.57;16.30;;;;;;;3.14;99.21;99718.31;124042;1099;104284;-79
2022/12/13 02:04:30;;;;;;;32.57;15.77;;;;;;;3.14;99.65;99714.84;123971;1099;104303;-78
2022/12/13 02:07:03;;;;;;;32.77;16.57;;;;;;;3.11;99.38;99714.67;123958;1099;104242;-77
2022/12/13 02:09:37;;;;;;;34.97;17.47;;;;;;;3.08;100.00;99714.52;123993;1099;104379;-78
2022/12/13 02:12:10;;;;;;;34.67;16.37;;;;;;;3.05;99.74;99733.38;123636;1100;104463;-80
2022/12/13 02:14:41;;;;;;;36.33;17.53;;;;;;;3.01;99.96;99739.22;123612;1098;104222;-80
2022/12/13 02:17:19;;;;;;;33.57;17.23;;;;;;;2.97;100.00;99738.14;124021;1099;104275;-79
2022/12/13 02:20:19;;;;;;;35.63;18.43;;;;;;;2.94;100.00;99737.98;123811;1099;104724;-79
2022/12/13 02:23:10;;;;;;;36.30;17.33;;;;;;;2.92;99.80;99759.46;124109;1099;104284;-77
2022/12/13 02:26:01;;;;;;;36.50;18.10;;;;;;;2.90;100.00;99758.46;123751;1099;104334;-78
2022/12/13 02:28:46;;;;;;;32.20;15.65;;;;;;;2.90;98.92;99763.64;124047;1099;104335;-77
2022/12/13 02:31:23;;;;;;;34.43;16.17;;;;;;;2.87;99.48;99773.05;123765;1099;104325;-77
2022/12/13 02:34:01;;;;;;;31.13;15.57;;;;;;;2.84;98.56;99772.87;124230;1099;104307;-78
2022/12/13 02:36:42;;;;;;;34.47;16.90;;;;;;;2.80;98.91;99776.09;123976;1098;104332;-79
2022/12/13 02:39:19;;;;;;;34.10;16.57;;;;;;;2.76;98.53;99779.34;123749;1099;104354;-79
2022/12/13 02:41:53;;;;;;;33.47;15.97;;;;;;;2.70;98.16;99779.01;123676;1102;104367;-78
2022/12/13 02:44:29;;;;;;;33.47;15.67;;;;;;;2.64;97.60;99784.73;123745;1099;104268;-79
2022/12/13 02:47:05;;;;;;;35.23;16.50;;;;;;;2.57;96.86;99781.71;123989;1099;104272;-79
2022/12/13 02:49:40;;;;;;;32.47;15.70;;;;;;;2.49;95.38;99789.05;123923;1099;104270;-79
2022/12/13 02:52:16;;;;;;;33.13;16.47;;;;;;;2.43;96.95;99788.70;123608;1099;104367;-79
2022/12/13 02:54:48;;;;;;;34.73;16.37;;;;;;;2.40;96.79;99798.88;124031;1099;104261;-78
2022/12/13 02:57:34;;;;;;;32.93;15.47;;;;;;;2.35;95.31;99808.98;124014;1099;104320;-78
2022/12/13 03:00:09;;;;;;;32.37;15.70;;;;;;;2.30;96.33;99810.42;123732;1099;104350;-78
2022/12/13 03:02:55;;;;;;;31.03;13.97;;;;;;;2.26;94.97;99803.27;123973;1099;104256;-78
2022/12/13 03:08:30;;;;;;;29.10;13.93;;;;;;;2.12;93.00;99818.91;123905;1098;104322;-78
2022/12/13 03:11:07;;;;;;;27.10;12.13;;;;;;;2.03;91.60;99825.25;123567;1099;104332;-78
2022/12/13 03:13:47;;;;;;;27.00;11.90;;;;;;;1.91;89.78;99817.65;123821;1099;104658;-78
2022/12/13 03:16:27;;;;;;;25.07;10.90;;;;;;;1.83;90.57;99804.26;123941;1099;104294;-78
2022/12/13 03:19:02;;;;;;;26.40;11.93;;;;;;;1.75;88.91;99806.39;124012;1099;104245;-78
2022/12/13 03:21:40;;;;;;;27.87;12.83;;;;;;;1.72;89.71;99813.97;124134;1099;104296;-78
2022/12/13 03:24:12;;;;;;;26.30;12.00;;;;;;;1.70;90.09;99815.58;124012;1099;104344;-78
2022/12/13 03:26:43;;;;;;;26.93;12.57;;;;;;;1.68;89.47;99811.10;124119;1099;104245;-78
2022/12/13 03:29:15;;;;;;;29.90;13.47;;;;;;;1.67;90.66;99806.72;123967;1099;104243;-78
2022/12/13 03:31:46;;;;;;;25.80;12.03;;;;;;;1.70;91.67;99814.66;123981;1099;104402;-78
2022/12/13 03:34:17;;;;;;;27.03;11.60;;;;;;;1.68;87.46;99814.57;123886;1099;104373;-78
2022/12/13 03:36:48;;;;;;;25.37;11.97;;;;;;;1.66;88.01;99800.66;123919;1099;104331;-78
2022/12/13 03:39:20;;;;;;;25.83;11.60;;;;;;;1.66;87.23;99803.25;124100;1099;104302;-78
2022/12/13 03:41:52;;;;;;;25.40;11.73;;;;;;;1.62;88.29;99785.75;123982;1098;104274;-78
2022/12/13 03:44:23;;;;;;;29.20;11.77;;;;;;;1.60;88.77;99810.64;124029;1099;104329;-78
2022/12/13 03:46:54;;;;;;;28.27;12.07;;;;;;;1.55;87.65;99812.06;123851;1099;104648;-78
2022/12/13 03:49:25;;;;;;;26.20;12.20;;;;;;;1.53;88.89;99809.39;123911;1099;104383;-77
2022/12/13 03:51:56;;;;;;;29.20;13.23;;;;;;;1.49;86.81;99834.97;123643;1099;104305;-78
2022/12/13 03:54:27;;;;;;;29.17;12.77;;;;;;;1.46;85.81;99837.36;123706;1099;105833;-78
2022/12/13 03:56:58;;;;;;;28.87;12.13;;;;;;;1.39;84.63;99851.61;123500;1099;104468;-79
2022/12/13 03:59:29;;;;;;;26.37;11.67;;;;;;;1.35;84.21;99855.67;123473;1099;104213;-78
2022/12/13 04:02:01;;;;;;;26.25;12.55;;;;;;;1.33;86.36;99853.82;123563;1099;104309;-79
2022/12/13 04:04:32;;;;;;;28.03;12.37;;;;;;;1.30;86.40;99844.17;123638;1099;104220;-77
2022/12/13 04:07:03;;;;;;;26.23;11.90;;;;;;;1.30;86.13;99848.45;123882;1099;104204;-78
2022/12/13 04:09:34;;;;;;;26.17;12.07;;;;;;;1.29;85.59;99854.41;123764;1098;104358;-78
2022/12/13 04:14:55;;;;;;;26.30;12.33;;;;;;;1.23;84.87;99860.08;123490;1100;105851;-78
2022/12/13 04:17:26;;;;;;;26.03;11.70;;;;;;;1.18;82.14;99866.67;123775;1098;104229;-78
2022/12/13 04:19:57;;;;;;;27.27;11.77;;;;;;;1.15;81.21;99862.19;123581;1099;104275;-77
2022/12/13 04:22:28;;;;;;;26.13;11.07;;;;;;;1.11;82.53;99859.31;123540;1099;104366;-78
2022/12/13 04:24:59;;;;;;;25.97;10.83;;;;;;;1.08;82.12;99860.92;123630;1099;104320;-77
2022/12/13 04:27:30;;;;;;;24.37;10.93;;;;;;;1.07;82.97;99861.70;123396;1099;104274;-78
2022/12/13 04:30:02;;;;;;;24.63;10.23;;;;;;;1.07;82.25;99865.98;123873;1099;104351;-78
2022/12/13 04:32:33;;;;;;;24.83;11.00;;;;;;;1.04;81.41;99861.55;123718;1099;104352;-78
2022/12/13 04:35:04;;;;;;;23.00;9.73;;;;;;;1.04;82.16;99863.20;123740;1099;104371;-78
2022/12/13 04:37:36;;;;;;;21.60;9.60;;;;;;;1.00;81.49;99861.25;123617;1098;104339;-77
2022/12/13 04:40:09;;;;;;;23.20;9.93;;;;;;;0.97;82.58;99861.94;123736;1099;104325;-77
2022/12/13 04:42:40;;;;;;;23.25;10.48;;;;;;;0.96;83.54;99870.47;123496;1099;104367;-77
2022/12/13 04:45:16;;;;;;;24.47;11.37;;;;;;;0.95;83.61;99863.54;123858;1099;104254;-77
2022/12/13 04:47:48;;;;;;;25.30;11.00;;;;;;;0.92;82.93;99871.09;123446;1099;104313;-76
2022/12/13 04:50:19;;;;;;;24.53;11.10;;;;;;;0.88;83.24;99879.43;123496;1098;104300;-75
2022/12/13 04:52:50;;;;;;;27.93;12.57;;;;;;;0.82;83.48;99876.45;123394;1098;104296;-76
2022/12/13 04:55:23;;;;;;;28.30;12.63;;;;;;;0.77;83.69;99870.11;123545;1099;104313;-76
2022/12/13 04:57:54;;;;;;;26.57;11.30;;;;;;;0.70;82.91;99872.30;123585;1099;104236;-76
2022/12/13 05:00:25;;;;;;;26.53;10.83;;;;;;;0.69;83.48;99878.24;123488;1099;104406;-77
2022/12/13 05:02:56;;;;;;;24.90;11.33;;;;;;;0.65;83.35;99876.24;123419;1098;104310;-75
2022/12/13 05:05:27;;;;;;;24.03;10.63;;;;;;;0.62;83.03;99868.30;123412;1098;104229;-76
2022/12/13 05:07:58;;;;;;;23.67;10.37;;;;;;;0.59;83.40;99882.70;123387;1099;104338;-77
2022/12/13 05:10:29;;;;;;;24.97;11.40;;;;;;;0.57;83.08;99877.44;123406;1099;104687;-77
2022/12/13 05:13:02;;;;;;;24.00;10.67;;;;;;;0.55;82.29;99876.46;123493;1099;104354;-77
2022/12/13 05:15:33;;;;;;;22.43;10.17;;;;;;;0.52;81.91;99873.67;123448;1099;105691;-77
2022/12/13 05:18:07;;;;;;;21.63;9.90;;;;;;;0.49;81.11;99883.80;123474;1099;104248;-77
2022/12/13 05:20:38;;;;;;;23.45;10.35;;;;;;;0.49;82.34;99873.47;123460;1099;104249;-76
2022/12/13 05:23:09;;;;;;;24.27;10.30;;;;;;;0.47;81.52;99887.98;123601;1099;104380;-77
2022/12/13 05:25:40;;;;;;;24.30;10.47;;;;;;;0.45;81.67;99880.13;123679;1099;104571;-78
2022/12/13 05:28:11;;;;;;;21.53;9.57;;;;;;;0.44;80.43;99890.36;123877;1098;104350;-77
2022/12/13 05:30:44;;;;;;;24.80;10.17;;;;;;;0.44;81.50;99892.94;123707;1099;104307;-77
2022/12/13 05:33:15;;;;;;;22.43;9.70;;;;;;;0.42;81.07;99886.76;123765;1099;104280;-77
2022/12/13 05:35:46;;;;;;;20.55;8.70;;;;;;;0.40;80.65;99899.56;123649;1099;104201;-77
2022/12/13 05:38:17;;;;;;;21.17;9.07;;;;;;;0.39;80.32;99896.88;123614;1098;104376;-77
2022/12/13 05:40:48;;;;;;;24.20;10.40;;;;;;;0.36;81.01;99905.34;123682;1099;104297;-78
2022/12/13 05:43:20;;;;;;;25.93;10.63;;;;;;;0.33;80.02;99906.02;123843;1099;104256;-77
2022/12/13 05:45:52;;;;;;;25.50;10.60;;;;;;;0.32;81.87;99909.37;123683;1099;104197;-77
2022/12/13 05:48:23;;;;;;;24.83;10.33;;;;;;;0.30;80.71;99910.97;123929;1099;104223;-77
2022/12/13 05:50:54;;;;;;;23.15;9.50;;;;;;;0.30;80.33;99916.13;123711;1099;104322;-77
2022/12/13 05:53:25;;;;;;;23.00;9.63;;;;;;;0.28;78.87;99917.73;123850;1099;104201;-78
2022/12/13 05:56:00;;;;;;;22.47;10.03;;;;;;;0.27;79.79;99920.20;123749;1099;104200;-77
2022/12/13 05:58:32;;;;;;;22.30;9.40;;;;;;;0.28;79.46;99921.97;123990;1099;104466;-79
2022/12/13 06:01:08;;;;;;;22.77;9.40;;;;;;;0.26;79.95;99921.87;123870;1099;104166;-77
2022/12/13 06:03:40;;;;;;;22.93;9.40;;;;;;;0.27;78.85;99933.99;124091;1099;104242;-78
2022/12/13 06:06:13;;;;;;;23.77;9.80;;;;;;;0.24;79.58;99933.78;123930;1099;104243;-77
2022/12/13 06:08:44;;;;;;;25.75;9.30;;;;;;;0.22;78.32;99939.62;123960;1099;104287;-79
2022/12/13 06:11:15;;;;;;;24.60;10.30;;;;;;;0.21;79.24;99945.59;123914;1099;104280;-78
2022/12/13 06:13:50;;;;;;;21.15;9.10;;;;;;;0.20;78.28;99942.09;123547;1099;104229;-75
2022/12/13 06:16:21;;;;;;;23.23;9.57;;;;;;;0.18;78.04;99938.53;123982;1098;104395;-76
2022/12/13 06:19:06;;;;;;;23.60;10.23;;;;;;;0.16;77.09;99942.70;123986;1099;104366;-76
2022/12/13 06:21:38;;;;;;;22.70;9.70;;;;;;;0.14;77.88;99931.36;124070;1099;104271;-76
2022/12/13 06:24:09;;;;;;;24.20;9.77;;;;;;;0.14;78.06;99939.09;124221;1099;104245;-77
2022/12/13 06:26:40;;;;;;;23.50;9.67;;;;;;;0.12;77.92;99936.41;124388;1099;104677;-77
2022/12/13 06:29:14;;;;;;;26.27;10.23;;;;;;;0.11;77.76;99936.31;124075;1099;104360;-77
2022/12/13 06:31:45;;;;;;;21.80;9.73;;;;;;;0.08;77.62;99931.86;124341;1099;104044;-77
2022/12/13 06:34:17;;;;;;;25.97;9.90;;;;;;;0.06;77.07;99933.41;124649;1099;104291;-74
2022/12/13 06:36:48;;;;;;;26.33;10.73;;;;;;;0.07;78.62;99934.33;124643;1099;104175;-76
2022/12/13 06:39:19;;;;;;;25.53;10.80;;;;;;;0.05;77.81;99938.47;124431;1098;102757;-76
2022/12/13 06:41:50;;;;;;;26.23;11.63;;;;;;;0.05;77.48;99936.81;124518;1099;104245;-76
2022/12/13 06:44:22;;;;;;;39.27;10.83;;;;;;;0.07;78.08;99934.33;124908;1099;104201;-77
2022/12/13 06:46:56;;;;;;;53.40;12.23;;;;;;;0.09;78.17;99933.63;124538;1099;103330;-75
2022/12/13 06:49:28;;;;;;;38.60;12.40;;;;;;;0.11;77.42;99932.06;124631;1099;104245;-75
2022/12/13 06:51:59;;;;;;;30.93;11.13;;;;;;;0.15;76.92;99936.62;124670;1099;104297;-75
2022/12/13 06:54:30;;;;;;;28.73;10.73;;;;;;;0.21;76.19;99935.27;124828;1099;104168;-76
2022/12/13 06:57:02;;;;;;;26.63;10.23;;;;;;;0.27;76.71;99935.69;124602;1099;104229;-77
2022/12/13 06:59:33;;;;;;;28.23;10.23;;;;;;;0.30;75.80;99939.36;124644;1099;102125;-76
2022/12/13 07:02:04;;;;;;;24.43;9.67;;;;;;;0.33;75.92;99936.98;124361;1099;104171;-77
2022/12/13 07:04:36;;;;;;;30.77;9.90;;;;;;;0.38;75.87;99941.58;125016;1099;104181;-77
2022/12/13 07:07:07;;;;;;;25.17;10.43;;;;;;;0.42;75.60;99939.30;124999;1099;104297;-80
2022/12/13 07:09:38;;;;;;;37.73;12.97;;;;;;;0.44;76.19;99940.29;124681;1099;104268;-79
2022/12/13 07:12:10;;;;;;;24.23;10.20;;;;;;;0.43;75.40;99935.91;124678;1098;104165;-78
2022/12/13 07:14:42;;;;;;;23.77;10.53;;;;;;;0.49;75.41;99938.02;124757;1099;104248;-79
2022/12/13 07:17:17;;;;;;;24.57;10.50;;;;;;;0.53;74.86;99930.58;124948;1099;102758;-77
2022/12/13 07:19:50;;;;;;;27.10;9.67;;;;;;;0.58;74.22;99930.88;125384;1099;102132;-77
2022/12/13 07:22:21;;;;;;;25.23;10.43;;;;;;;0.66;75.81;99921.94;124787;1098;102575;-79
2022/12/13 07:24:53;;;;;;;48.27;13.27;;;;;;;0.76;76.10;99930.30;125143;1099;104351;-78
2022/12/13 07:27:24;;;;;;;57.20;15.23;;;;;;;0.79;73.56;99939.13;125091;1098;104254;-78
2022/12/13 07:29:56;;;;;;;28.20;11.10;;;;;;;0.84;73.63;99947.17;125304;1099;103364;-78
2022/12/13 07:32:28;;;;;;;25.70;11.10;;;;;;;0.86;73.23;99943.03;126776;1098;103069;-79
2022/12/13 07:35:01;;;;;;;25.03;11.33;;;;;;;0.89;75.06;99944.11;126366;1099;101505;-78
2022/12/13 07:37:33;;;;;;;23.57;10.33;;;;;;;0.91;72.22;99949.38;126426;1098;102759;-80
2022/12/13 07:40:06;;;;;;;26.17;11.03;;;;;;;0.94;70.75;99954.75;126771;1098;102585;-80
2022/12/13 07:42:38;;;;;;;44.53;11.70;;;;;;;1.00;72.97;99947.39;126749;1099;102495;-79
2022/12/13 07:45:10;;;;;;;39.37;12.60;;;;;;;1.06;72.91;99941.70;126690;1099;103515;-80
2022/12/13 07:47:42;;;;;;;41.87;12.70;;;;;;;1.11;73.56;99937.75;126516;1099;101889;-79
2022/12/13 07:50:14;;;;;;;28.97;10.80;;;;;;;1.20;73.96;99942.59;126240;1099;101775;-79
2022/12/13 07:52:48;;;;;;;25.43;9.83;;;;;;;1.25;71.18;99936.05;126323;1099;102805;-78
2022/12/13 07:55:23;;;;;;;30.83;11.27;;;;;;;1.30;71.58;99942.39;125555;1099;103610;-81
2022/12/13 07:57:54;;;;;;;21.40;7.90;;;;;;;1.35;69.49;99937.52;125387;1099;103662;-80
2022/12/13 08:00:28;;;;;;;18.53;7.93;;;;;;;1.40;70.88;99941.28;125639;1099;102866;-79
2022/12/13 08:03:00;;;;;;;21.97;8.60;;;;;;;1.44;67.77;99949.33;125670;1098;104204;-80
2022/12/13 08:05:31;;;;;;;20.20;7.20;;;;;;;1.44;65.72;99948.45;125573;1099;104075;-78
2022/12/13 08:08:06;;;;;;;19.30;7.73;;;;;;;1.49;69.97;99940.98;124889;1099;104168;-83
2022/12/13 08:10:38;;;;;;;20.20;7.93;;;;;;;1.56;67.93;99948.34;124851;1098;102798;-79
2022/12/13 08:13:10;;;;;;;19.57;7.37;;;;;;;1.58;68.88;99944.14;125302;1098;104223;-78
2022/12/13 08:15:41;;;;;;;29.80;7.50;;;;;;;1.61;69.87;99936.58;125526;1099;104161;-79
2022/12/13 08:18:14;;;;;;;19.63;7.20;;;;;;;1.67;69.15;99936.04;125579;1099;102229;-77
2022/12/13 08:20:47;;;;;;;20.87;6.70;;;;;;;1.74;68.02;99939.10;125664;1099;104165;-80
2022/12/13 08:23:19;;;;;;;16.47;6.70;;;;;;;1.81;65.89;99940.40;125722;1099;104226;-77
2022/12/13 08:26:04;;;;;;;16.40;6.83;;;;;;;1.87;67.49;99934.69;125754;1099;104072;-76
2022/12/13 08:28:36;;;;;;;27.83;7.97;;;;;;;1.93;67.78;99941.16;125465;1099;102782;-77
2022/12/13 08:31:13;;;;;;;18.70;6.60;;;;;;;2.02;69.44;99950.27;125039;1099;102630;-75
2022/12/13 08:33:46;;;;;;;15.87;6.70;;;;;;;2.02;65.94;99945.97;125210;1099;104226;-77
2022/12/13 08:36:17;;;;;;;;;;;;;;;2.02;62.29;99953.73;125271;1099;102418;-76
2022/12/13 08:38:49;;;;;;;15.37;6.40;;;;;;;2.04;63.08;99952.16;125493;1098;102090;-79
2022/12/13 08:41:24;;;;;;;16.70;6.43;;;;;;;2.04;65.09;99940.89;125665;1098;102825;-81
2022/12/13 08:44:11;;;;;;;21.17;6.40;;;;;;;2.07;63.92;99941.99;125516;1099;104191;-77
2022/12/13 08:46:42;;;;;;;16.85;6.75;;;;;;;2.10;63.00;99949.94;125597;1099;101948;-79
2022/12/13 08:49:14;;;;;;;12.93;6.00;;;;;;;2.11;62.87;99953.41;125403;1099;104229;-77
2022/12/13 08:51:46;;;;;;;13.43;5.57;;;;;;;2.04;58.73;99959.92;124341;1099;104335;-76
2022/12/13 08:54:17;;;;;;;15.87;5.07;;;;;;;1.96;57.01;99945.59;125038;1098;104182;-78
2022/12/13 08:56:51;;;;;;;22.83;6.10;;;;;;;1.96;62.45;99950.77;125135;1099;104225;-76
2022/12/13 08:59:25;;;;;;;14.13;5.93;;;;;;;1.99;63.69;99943.20;124985;1098;104131;-77
2022/12/13 09:01:59;;;;;;;13.93;5.67;;;;;;;2.04;62.26;99943.48;125081;1098;104249;-76
2022/12/13 09:04:30;;;;;;;17.27;6.00;;;;;;;2.09;63.76;99947.27;124961;1099;105615;-77
2022/12/13 09:07:02;;;;;;;17.93;6.97;;;;;;;2.14;62.05;99940.66;125186;1099;102597;-79
2022/12/13 09:09:34;;;;;;;20.67;7.17;;;;;;;2.14;60.49;99933.77;125177;1099;102316;-75
2022/12/13 09:12:06;;;;;;;17.97;6.70;;;;;;;2.13;61.15;99939.73;125102;1099;104242;-77
2022/12/13 09:14:38;;;;;;;17.63;6.10;;;;;;;2.15;59.49;99943.34;125088;1098;104160;-78
2022/12/13 09:17:10;;;;;;;20.53;7.03;;;;;;;2.12;61.37;99943.16;125155;1098;102631;-79
2022/12/13 09:19:41;;;;;;;14.87;6.23;;;;;;;2.14;58.07;99951.02;125198;1099;104112;-78
2022/12/13 09:22:13;;;;;;;15.57;5.63;;;;;;;2.11;58.08;99938.77;125308;1099;104220;-78
2022/12/13 09:24:45;;;;;;;19.03;6.33;;;;;;;2.11;58.80;99936.17;125193;1099;104237;-77
2022/12/13 09:27:17;;;;;;;14.77;5.83;;;;;;;2.12;57.85;99935.39;125174;1099;104217;-76
2022/12/13 09:29:50;;;;;;;15.63;6.60;;;;;;;2.09;59.88;99937.79;124891;1098;104262;-78
2022/12/13 09:32:22;;;;;;;13.57;5.97;;;;;;;2.07;57.73;99936.81;125179;1099;104178;-76
2022/12/13 09:34:53;;;;;;;15.00;6.33;;;;;;;2.05;58.35;99937.52;125325;1099;104245;-77
2022/12/13 09:37:28;;;;;;;16.07;6.63;;;;;;;2.02;58.10;99934.73;124752;1099;104229;-77
2022/12/13 09:40:00;;;;;;;16.60;6.87;;;;;;;1.98;57.85;99938.84;125359;1099;104261;-81
2022/12/13 09:42:33;;;;;;;20.17;7.30;;;;;;;2.00;59.17;99932.05;125466;1099;102907;-78
2022/12/13 09:45:12;;;;;;;20.17;7.17;;;;;;;2.01;56.50;99935.53;124971;1099;104194;-78
2022/12/13 09:47:45;;;;;;;16.63;6.50;;;;;;;2.01;59.14;99938.11;126330;1098;104245;-78
2022/12/13 09:50:24;;;;;;;16.70;7.35;;;;;;;1.92;55.07;99929.00;125112;1099;102674;-79
2022/12/13 09:52:59;;;;;;;21.47;7.40;;;;;;;2.05;58.30;99932.34;124939;1100;103189;-80
2022/12/13 09:55:37;;;;;;;20.23;7.10;;;;;;;2.03;58.54;99945.19;125236;1099;103459;-78
2022/12/13 09:58:14;;;;;;;28.40;8.50;;;;;;;2.00;59.07;99939.82;125420;1098;103346;-78
2022/12/13 10:00:48;;;;;;;18.33;7.03;;;;;;;2.01;58.07;99939.03;125048;1099;103107;-78
2022/12/13 10:03:23;;;;;;;19.77;8.07;;;;;;;2.01;60.61;99923.50;125642;1099;103240;-82
2022/12/13 10:06:02;;;;;;;16.77;5.37;;;;;;;1.97;53.25;99944.81;125552;1098;103193;-77
2022/12/13 10:08:38;;;;;;;16.77;6.33;;;;;;;2.01;55.67;99939.03;126142;1099;101995;-78
2022/12/13 10:11:14;;;;;;;15.43;5.70;;;;;;;2.02;55.19;99950.27;126651;1099;101423;-78
2022/12/13 10:13:55;;;;;;;12.67;5.53;;;;;;;2.01;56.06;99949.38;126577;1098;104261;-79
2022/12/13 10:16:38;;;;;;;14.07;6.10;;;;;;;1.96;54.37;99955.95;125216;1099;102925;-80
2022/12/13 10:19:18;;;;;;;19.43;5.70;;;;;;;1.90;55.09;99953.90;125259;1099;104274;-78
2022/12/13 10:21:50;;;;;;;16.00;7.00;;;;;;;1.88;57.22;99942.55;124851;1099;104241;-79
2022/12/13 10:24:29;;;;;;;16.47;6.73;;;;;;;1.89;55.31;99946.92;125343;1099;104242;-80
2022/12/13 10:27:15;;;;;;;15.43;6.27;;;;;;;1.92;57.63;99947.11;126927;1098;101490;-78
2022/12/13 10:30:20;;;;;;;15.40;6.47;;;;;;;1.91;55.55;99939.26;126136;1099;101877;-78
2022/12/13 10:32:55;;;;;;;15.30;6.27;;;;;;;1.86;55.99;99938.09;125085;1099;118680;-78
2022/12/13 10:35:46;;;;;;;16.07;6.40;;;;;;;1.81;56.35;99937.81;125063;1099;104274;-79
2022/12/13 10:38:31;;;;;;;16.07;6.57;;;;;;;1.77;55.01;99944.47;124635;1102;102892;-78
2022/12/13 10:41:03;;;;;;;20.87;7.47;;;;;;;1.76;57.90;99940.11;124902;1099;104224;-77
2022/12/13 10:43:35;;;;;;;;;;;;;;;1.68;54.15;99945.59;125330;1099;103059;-78
2022/12/13 10:46:17;;;;;;;24.07;7.90;;;;;;;1.67;57.01;99951.56;125278;1099;104255;-80
2022/12/13 10:48:52;;;;;;;17.77;7.87;;;;;;;1.61;56.62;99949.50;124802;1099;104338;-78
2022/12/13 10:51:24;;;;;;;16.70;7.37;;;;;;;1.55;57.46;99949.13;125372;1099;104225;-79
2022/12/13 10:54:00;;;;;;;16.83;7.13;;;;;;;1.48;55.96;99949.52;125164;1098;104245;-79
2022/12/13 10:56:43;;;;;;;20.87;7.80;;;;;;;1.49;56.36;99959.08;124903;1102;104289;-79
2022/12/13 10:59:33;;;;;;;19.10;7.73;;;;;;;1.57;58.97;99960.45;124897;1102;102883;-78
2022/12/13 11:02:32;;;;;;;19.00;8.17;;;;;;;1.58;56.84;99954.48;124901;1099;104248;-78
2022/12/13 11:05:26;;;;;;;17.40;7.53;;;;;;;1.60;58.08;99955.47;124971;1099;102213;-79
2022/12/13 11:08:15;;;;;;;17.80;7.47;;;;;;;1.56;58.46;99966.44;124981;1099;104220;-79
2022/12/13 11:10:56;;;;;;;19.50;7.67;;;;;;;1.53;58.06;99974.00;125131;1099;104165;-79
2022/12/13 11:13:37;;;;;;;18.20;7.67;;;;;;;1.49;59.11;99961.66;125227;1099;104425;-79
2022/12/13 11:16:24;;;;;;;18.47;7.53;;;;;;;1.51;59.10;99960.06;125346;1099;104159;-79
2022/12/13 11:19:01;;;;;;;20.67;8.37;;;;;;;1.51;59.06;99975.57;124880;1100;102866;-79
2022/12/13 11:21:35;;;;;;;15.53;7.03;;;;;;;1.61;59.19;99972.78;124868;1099;104251;-78
2022/12/13 11:24:09;;;;;;;22.13;8.23;;;;;;;1.66;59.47;99967.90;125672;1099;104172;-81
2022/12/13 11:26:47;;;;;;;18.85;8.33;;;;;;;1.74;59.41;99964.97;125157;1099;102788;-80
2022/12/13 11:29:55;;;;;;;29.17;9.47;;;;;;;1.76;59.88;99967.66;125633;1099;102389;-80
2022/12/13 11:32:46;;;;;;;30.70;8.67;;;;;;;1.84;59.05;99971.63;124949;1102;104261;-80
2022/12/13 11:35:27;;;;;;;20.97;8.13;;;;;;;1.92;60.29;99977.28;125256;1099;103469;-79
2022/12/13 11:38:11;;;;;;;24.20;8.70;;;;;;;2.00;60.77;99978.64;125002;1102;102016;-80
2022/12/13 11:40:47;;;;;;;22.77;8.70;;;;;;;2.04;60.86;99975.45;125259;1099;104175;-80
2022/12/13 11:43:29;;;;;;;21.93;9.07;;;;;;;2.00;60.87;99967.41;125300;1099;103131;-80
2022/12/13 11:46:05;;;;;;;19.37;8.20;;;;;;;1.99;61.04;99976.84;125628;1099;104655;-78
2022/12/13 11:48:49;;;;;;;19.17;9.23;;;;;;;1.94;61.88;99975.67;124945;1099;103071;-79
2022/12/13 11:51:37;;;;;;;17.63;8.57;;;;;;;1.88;61.36;99989.11;125832;1099;102605;-79